sensor_id;sensor_type;location;lat;lon;timestamp;pressure;altitude;pressure_sealevel;temperature;humidity
11223;BME280;5668;52.012;8.724;2023-02-13T00:01:09;102371.75;;;9.47;100.00
11223;BME280;5668;52.012;8.724;2023-02-13T00:03:36;102377.88;;;9.46;100.00
11223;BME280;5668;52.012;8.724;2023-02-13T00:06:03;102370.13;;;9.45;100.00
11223;BME280;5668;52.012;8.724;2023-02-13T00:08:31;102374.47;;;9.44;100.00
11223;BME280;5668;52.012;8.724;2023-02-13T00:10:58;102374.47;;;9.44;100.00
11223;BME280;5668;52.012;8.724;2023-02-13T00:13:27;102377.16;;;9.41;100.00
11223;BME280;5668;52.012;8.724;2023-02-13T00:15:57;102373.63;;;9.44;100.00
11223;BME280;5668;52.012;8.724;2023-02-13T00:18:25;102373.63;;;9.44;100.00
11223;BME280;5668;52.012;8.724;2023-02-13T00:20:57;102370.97;;;9.45;100.00
11223;BME280;5668;52.012;8.724;2023-02-13T00:23:25;102371.91;;;9.43;100.00
11223;BME280;5668;52.012;8.724;2023-02-13T00:25:52;102371.06;;;9.42;100.00
11223;BME280;5668;52.012;8.724;2023-02-13T00:28:19;102368.47;;;9.42;100.00
11223;BME280;5668;52.012;8.724;2023-02-13T00:30:48;102365.88;;;9.42;100.00
11223;BME280;5668;52.012;8.724;2023-02-13T00:33:15;102371.06;;;9.42;100.00
11223;BME280;5668;52.012;8.724;2023-02-13T00:35:42;102369.38;;;9.41;100.00
11223;BME280;5668;52.012;8.724;2023-02-13T00:38:09;102364.28;;;9.38;100.00
11223;BME280;5668;52.012;8.724;2023-02-13T00:40:37;102365.16;;;9.39;100.00
11223;BME280;5668;52.012;8.724;2023-02-13T00:43:04;102366.00;;;9.39;100.00
11223;BME280;5668;52.012;8.724;2023-02-13T00:45:31;102366.84;;;9.40;100.00
11223;BME280;5668;52.012;8.724;2023-02-13T00:47:59;102360.81;;;9.39;100.00
11223;BME280;5668;52.012;8.724;2023-02-13T00:50:27;102361.69;;;9.38;100.00
11223;BME280;5668;52.012;8.724;2023-02-13T00:52:54;102359.09;;;9.38;100.00
11223;BME280;5668;52.012;8.724;2023-02-13T00:55:22;102360.84;;;9.38;100.00
11223;BME280;5668;52.012;8.724;2023-02-13T00:57:49;102364.28;;;9.38;100.00
11223;BME280;5668;52.012;8.724;2023-02-13T01:00:17;102366.84;;;9.40;100.00
11223;BME280;5668;52.012;8.724;2023-02-13T01:02:44;102366.00;;;9.39;100.00
11223;BME280;5668;52.012;8.724;2023-02-13T01:05:14;102364.25;;;9.40;100.00
11223;BME280;5668;52.012;8.724;2023-02-13T01:07:41;102367.78;;;9.37;100.00
11223;BME280;5668;52.012;8.724;2023-02-13T01:10:10;102369.56;;;9.35;100.00
11223;BME280;5668;52.012;8.724;2023-02-13T01:12:38;102367.03;;;9.33;100.00
11223;BME280;5668;52.012;8.724;2023-02-13T01:15:05;102359.31;;;9.32;100.00
11223;BME280;5668;52.012;8.724;2023-02-13T01:17:33;102365.31;;;9.32;100.00
11223;BME280;5668;52.012;8.724;2023-02-13T01:20:00;102364.50;;;9.32;100.00
11223;BME280;5668;52.012;8.724;2023-02-13T01:22:29;102359.22;;;9.33;100.00
11223;BME280;5668;52.012;8.724;2023-02-13T01:24:56;102360.09;;;9.34;100.00
11223;BME280;5668;52.012;8.724;2023-02-13T01:27:23;102364.50;;;9.32;100.00
11223;BME280;5668;52.012;8.724;2023-02-13T01:29:50;102366.16;;;9.33;100.00
11223;BME280;5668;52.012;8.724;2023-02-13T01:32:18;102355.78;;;9.33;100.00
11223;BME280;5668;52.012;8.724;2023-02-13T01:34:45;102361.81;;;9.33;100.00
11223;BME280;5668;52.012;8.724;2023-02-13T01:37:12;102359.19;;;9.35;100.00
11223;BME280;5668;52.012;8.724;2023-02-13T01:39:41;102352.31;;;9.34;100.00
11223;BME280;5668;52.012;8.724;2023-02-13T01:42:13;102351.56;;;9.30;100.00
11223;BME280;5668;52.012;8.724;2023-02-13T01:44:50;102350.75;;;9.28;100.00
11223;BME280;5668;52.012;8.724;2023-02-13T01:47:24;102357.72;;;9.26;100.00
11223;BME280;5668;52.012;8.724;2023-02-13T01:50:02;102355.19;;;9.25;100.00
11223;BME280;5668;52.012;8.724;2023-02-13T01:52:31;102349.94;;;9.26;100.00
11223;BME280;5668;52.012;8.724;2023-02-13T01:55:00;102347.31;;;9.28;99.97
11223;BME280;5668;52.012;8.724;2023-02-13T01:57:28;102345.56;;;9.28;100.00
11223;BME280;5668;52.012;8.724;2023-02-13T02:00:01;102340.34;;;9.30;100.00
11223;BME280;5668;52.012;8.724;2023-02-13T02:02:32;102342.94;;;9.30;100.00
11223;BME280;5668;52.012;8.724;2023-02-13T02:05:01;102342.03;;;9.31;99.74
11223;BME280;5668;52.012;8.724;2023-02-13T02:07:30;102342.03;;;9.31;99.59
11223;BME280;5668;52.012;8.724;2023-02-13T02:10:02;102336.84;;;9.31;99.75
11223;BME280;5668;52.012;8.724;2023-02-13T02:12:35;102338.56;;;9.32;99.05
11223;BME280;5668;52.012;8.724;2023-02-13T02:15:05;102336.84;;;9.31;99.43
11223;BME280;5668;52.012;8.724;2023-02-13T02:17:32;102337.75;;;9.30;99.39
11223;BME280;5668;52.012;8.724;2023-02-13T02:20:08;102333.41;;;9.30;99.26
11223;BME280;5668;52.012;8.724;2023-02-13T02:23:03;102329.97;;;9.30;99.49
11223;BME280;5668;52.012;8.724;2023-02-13T02:29:29;102334.44;;;9.25;99.54
11223;BME280;5668;52.012;8.724;2023-02-13T02:35:09;102331.75;;;9.28;99.17
11223;BME280;5668;52.012;8.724;2023-02-13T02:37:59;102329.19;;;9.26;99.76
11223;BME280;5668;52.012;8.724;2023-02-13T02:40:33;102327.50;;;9.25;99.50
11223;BME280;5668;52.012;8.724;2023-02-13T02:43:13;102327.44;;;9.27;99.35
11223;BME280;5668;52.012;8.724;2023-02-13T02:45:50;102324.97;;;9.24;99.83
11223;BME280;5668;52.012;8.724;2023-02-13T02:48:25;102320.63;;;9.24;99.78
11223;BME280;5668;52.012;8.724;2023-02-13T02:51:20;102312.94;;;9.21;100.00
11223;BME280;5668;52.012;8.724;2023-02-13T02:53:55;102314.63;;;9.22;100.00
11223;BME280;5668;52.012;8.724;2023-02-13T02:56:33;102318.09;;;9.23;100.00
11223;BME280;5668;52.012;8.724;2023-02-13T02:59:05;102307.72;;;9.23;100.00
11223;BME280;5668;52.012;8.724;2023-02-13T03:01:53;102312.91;;;9.23;100.00
11223;BME280;5668;52.012;8.724;2023-02-13T03:04:41;102306.84;;;9.22;100.00
11223;BME280;5668;52.012;8.724;2023-02-13T03:07:36;102304.31;;;9.21;100.00
11223;BME280;5668;52.012;8.724;2023-02-13T03:10:06;102298.25;;;9.20;100.00
11223;BME280;5668;52.012;8.724;2023-02-13T03:12:58;102300.91;;;9.19;100.00
11223;BME280;5668;52.012;8.724;2023-02-13T03:15:48;102298.31;;;9.19;100.00
11223;BME280;5668;52.012;8.724;2023-02-13T03:18:37;102295.75;;;9.17;100.00
11223;BME280;5668;52.012;8.724;2023-02-13T03:21:31;102292.63;;;9.60;98.47
11223;BME280;5668;52.012;8.724;2023-02-13T03:24:27;102295.13;;;9.37;99.73
11223;BME280;5668;52.012;8.724;2023-02-13T03:27:03;102296.13;;;9.33;99.72
11223;BME280;5668;52.012;8.724;2023-02-13T03:29:42;102292.88;;;9.26;100.00
11223;BME280;5668;52.012;8.724;2023-02-13T03:32:38;102289.63;;;9.20;100.00
11223;BME280;5668;52.012;8.724;2023-02-13T03:35:19;102293.97;;;9.19;100.00
11223;BME280;5668;52.012;8.724;2023-02-13T03:38:10;102292.25;;;9.71;97.57
11223;BME280;5668;52.012;8.724;2023-02-13T03:40:46;102296.72;;;9.41;98.64
11223;BME280;5668;52.012;8.724;2023-02-13T03:43:31;102293.84;;;9.24;99.17
11223;BME280;5668;52.012;8.724;2023-02-13T03:46:03;102300.81;;;9.22;99.74
11223;BME280;5668;52.012;8.724;2023-02-13T03:48:34;102300.94;;;9.17;100.00
11223;BME280;5668;52.012;8.724;2023-02-13T03:51:25;102295.03;;;9.14;100.00
11223;BME280;5668;52.012;8.724;2023-02-13T03:53:58;102291.75;;;9.09;100.00
11223;BME280;5668;52.012;8.724;2023-02-13T03:56:27;102294.38;;;9.07;100.00
11223;BME280;5668;52.012;8.724;2023-02-13T03:59:19;102299.75;;;9.01;100.00
11223;BME280;5668;52.012;8.724;2023-02-13T04:01:53;102303.19;;;9.02;100.00
11223;BME280;5668;52.012;8.724;2023-02-13T04:04:29;102291.22;;;8.98;100.00
11223;BME280;5668;52.012;8.724;2023-02-13T04:07:01;102298.94;;;8.99;100.00
11223;BME280;5668;52.012;8.724;2023-02-13T04:09:32;102298.94;;;8.99;100.00
11223;BME280;5668;52.012;8.724;2023-02-13T04:12:05;102305.88;;;8.99;100.00
11223;BME280;5668;52.012;8.724;2023-02-13T04:14:37;102305.88;;;8.99;100.00
11223;BME280;5668;52.012;8.724;2023-02-13T04:17:08;102307.63;;;8.98;99.99
11223;BME280;5668;52.012;8.724;2023-02-13T04:19:38;102305.00;;;9.00;100.00
11223;BME280;5668;52.012;8.724;2023-02-13T04:22:05;102319.69;;;8.99;100.00
11223;BME280;5668;52.012;8.724;2023-02-13T04:24:34;102308.41;;;9.02;99.80
11223;BME280;5668;52.012;8.724;2023-02-13T04:27:01;102311.88;;;9.01;99.64
11223;BME280;5668;52.012;8.724;2023-02-13T04:29:28;102318.69;;;9.03;99.63
11223;BME280;5668;52.012;8.724;2023-02-13T04:31:56;102316.22;;;9.00;99.72
11223;BME280;5668;52.012;8.724;2023-02-13T04:34:23;102317.16;;;8.98;100.00
11223;BME280;5668;52.012;8.724;2023-02-13T04:36:50;102310.28;;;8.95;99.62
11223;BME280;5668;52.012;8.724;2023-02-13T04:39:17;102311.22;;;8.94;99.20
11223;BME280;5668;52.012;8.724;2023-02-13T04:41:46;102305.97;;;8.96;99.77
11223;BME280;5668;52.012;8.724;2023-02-13T04:44:13;102313.69;;;8.97;99.61
11223;BME280;5668;52.012;8.724;2023-02-13T04:46:40;102309.41;;;8.96;99.19
11223;BME280;5668;52.012;8.724;2023-02-13T04:49:08;102313.75;;;8.96;98.89
11223;BME280;5668;52.012;8.724;2023-02-13T04:51:36;102314.59;;;8.96;98.77
11223;BME280;5668;52.012;8.724;2023-02-13T04:54:03;102307.63;;;8.98;98.98
11223;BME280;5668;52.012;8.724;2023-02-13T04:56:30;102300.69;;;8.99;98.51
11223;BME280;5668;52.012;8.724;2023-02-13T04:58:59;102300.75;;;8.97;98.21
11223;BME280;5668;52.012;8.724;2023-02-13T05:01:26;102298.09;;;8.99;98.40
11223;BME280;5668;52.012;8.724;2023-02-13T05:03:53;102293.81;;;8.98;98.35
11223;BME280;5668;52.012;8.724;2023-02-13T05:06:20;102295.56;;;8.97;98.18
11223;BME280;5668;52.012;8.724;2023-02-13T05:08:47;102296.50;;;8.95;98.14
11223;BME280;5668;52.012;8.724;2023-02-13T05:11:15;102296.50;;;8.95;98.26
11223;BME280;5668;52.012;8.724;2023-02-13T05:13:42;102291.31;;;8.95;98.46
11223;BME280;5668;52.012;8.724;2023-02-13T05:16:10;102290.41;;;8.96;98.49
11223;BME280;5668;52.012;8.724;2023-02-13T05:18:37;102293.00;;;8.96;97.96
11223;BME280;5668;52.012;8.724;2023-02-13T05:21:05;102297.28;;;8.97;98.77
11223;BME280;5668;52.012;8.724;2023-02-13T05:23:50;102299.16;;;8.93;98.03
11223;BME280;5668;52.012;8.724;2023-02-13T05:26:17;102291.31;;;8.95;98.30
11223;BME280;5668;52.012;8.724;2023-02-13T05:28:44;102301.69;;;8.95;98.16
11223;BME280;5668;52.012;8.724;2023-02-13T05:31:30;102295.78;;;9.44;95.98
11223;BME280;5668;52.012;8.724;2023-02-13T05:33:57;102300.91;;;9.19;96.91
11223;BME280;5668;52.012;8.724;2023-02-13T05:36:24;102311.63;;;9.08;97.52
11223;BME280;5668;52.012;8.724;2023-02-13T05:38:51;102310.91;;;9.03;97.18
11223;BME280;5668;52.012;8.724;2023-02-13T05:41:19;102311.03;;;9.00;98.02
11223;BME280;5668;52.012;8.724;2023-02-13T05:43:46;102305.06;;;8.97;98.35
11223;BME280;5668;52.012;8.724;2023-02-13T05:46:14;102317.19;;;8.96;97.93
11223;BME280;5668;52.012;8.724;2023-02-13T05:48:42;102309.53;;;8.93;98.29
11223;BME280;5668;52.012;8.724;2023-02-13T05:51:10;102312.13;;;8.93;98.14
11223;BME280;5668;52.012;8.724;2023-02-13T05:53:37;102318.16;;;8.93;98.33
11223;BME280;5668;52.012;8.724;2023-02-13T05:56:05;102313.84;;;8.92;98.21
11223;BME280;5668;52.012;8.724;2023-02-13T05:58:33;102314.72;;;8.93;98.85
11223;BME280;5668;52.012;8.724;2023-02-13T06:01:00;102315.56;;;8.93;98.23
11223;BME280;5668;52.012;8.724;2023-02-13T06:03:29;102317.28;;;8.93;98.21
11223;BME280;5668;52.012;8.724;2023-02-13T06:05:58;102316.50;;;8.91;98.24
11223;BME280;5668;52.012;8.724;2023-02-13T06:08:26;102321.66;;;8.91;98.32
11223;BME280;5668;52.012;8.724;2023-02-13T06:10:53;102323.38;;;8.92;98.42
11223;BME280;5668;52.012;8.724;2023-02-13T06:13:20;102325.13;;;8.91;98.91
11223;BME280;5668;52.012;8.724;2023-02-13T06:15:47;102325.13;;;8.91;98.35
11223;BME280;5668;52.012;8.724;2023-02-13T06:18:15;102325.13;;;8.91;98.45
11223;BME280;5668;52.012;8.724;2023-02-13T06:20:43;102327.72;;;8.91;98.67
11223;BME280;5668;52.012;8.724;2023-02-13T06:23:11;102334.59;;;8.92;99.06
11223;BME280;5668;52.012;8.724;2023-02-13T06:25:38;102332.91;;;8.91;98.56
11223;BME280;5668;52.012;8.724;2023-02-13T06:28:06;102338.09;;;8.91;98.53
11223;BME280;5668;52.012;8.724;2023-02-13T06:30:34;102331.19;;;8.90;98.43
11223;BME280;5668;52.012;8.724;2023-02-13T06:33:01;102338.13;;;8.90;99.19
11223;BME280;5668;52.012;8.724;2023-02-13T06:35:28;102339.00;;;8.89;98.69
11223;BME280;5668;52.012;8.724;2023-02-13T06:37:55;102343.34;;;8.88;99.38
11223;BME280;5668;52.012;8.724;2023-02-13T06:40:24;102344.25;;;8.87;98.50
11223;BME280;5668;52.012;8.724;2023-02-13T06:42:52;102339.91;;;8.88;99.04
11223;BME280;5668;52.012;8.724;2023-02-13T06:45:19;102349.41;;;8.87;99.30
11223;BME280;5668;52.012;8.724;2023-02-13T06:47:47;102348.59;;;8.87;99.19
11223;BME280;5668;52.012;8.724;2023-02-13T06:50:17;102346.94;;;8.84;99.50
11223;BME280;5668;52.012;8.724;2023-02-13T06:52:45;102348.66;;;8.85;99.47
11223;BME280;5668;52.012;8.724;2023-02-13T06:55:13;102352.13;;;8.84;99.01
11223;BME280;5668;52.012;8.724;2023-02-13T06:57:43;102353.00;;;8.83;99.48
11223;BME280;5668;52.012;8.724;2023-02-13T07:00:12;102353.00;;;8.83;99.43
11223;BME280;5668;52.012;8.724;2023-02-13T07:02:40;102350.41;;;8.83;99.20
11223;BME280;5668;52.012;8.724;2023-02-13T07:05:08;102353.06;;;8.82;99.44
11223;BME280;5668;52.012;8.724;2023-02-13T07:07:37;102355.59;;;8.83;99.72
11223;BME280;5668;52.012;8.724;2023-02-13T07:10:10;102359.06;;;8.84;99.10
11223;BME280;5668;52.012;8.724;2023-02-13T07:12:38;102355.66;;;8.82;99.19
11223;BME280;5668;52.012;8.724;2023-02-13T07:15:08;102355.69;;;8.80;99.51
11223;BME280;5668;52.012;8.724;2023-02-13T07:17:35;102360.03;;;8.80;99.94
11223;BME280;5668;52.012;8.724;2023-02-13T07:20:03;102358.34;;;8.79;99.59
11223;BME280;5668;52.012;8.724;2023-02-13T07:22:32;102357.50;;;8.78;100.00
11223;BME280;5668;52.012;8.724;2023-02-13T07:24:59;102354.94;;;8.77;100.00
11223;BME280;5668;52.012;8.724;2023-02-13T07:27:27;102357.50;;;8.78;100.00
11223;BME280;5668;52.012;8.724;2023-02-13T07:29:55;102361.78;;;8.79;100.00
11223;BME280;5668;52.012;8.724;2023-02-13T07:32:25;102353.16;;;8.79;100.00
11223;BME280;5668;52.012;8.724;2023-02-13T07:34:52;102355.78;;;8.77;100.00
11223;BME280;5668;52.012;8.724;2023-02-13T07:37:19;102364.47;;;8.76;100.00
11223;BME280;5668;52.012;8.724;2023-02-13T07:39:46;102360.97;;;8.77;100.00
11223;BME280;5668;52.012;8.724;2023-02-13T07:42:14;102362.69;;;8.78;100.00
11223;BME280;5668;52.012;8.724;2023-02-13T07:44:41;102367.88;;;8.78;100.00
11223;BME280;5668;52.012;8.724;2023-02-13T07:47:08;102363.59;;;8.76;100.00
11223;BME280;5668;52.012;8.724;2023-02-13T07:49:37;102367.06;;;8.76;100.00
11223;BME280;5668;52.012;8.724;2023-02-13T07:52:04;102364.47;;;8.76;100.00
11223;BME280;5668;52.012;8.724;2023-02-13T07:54:32;102365.34;;;8.75;100.00
11223;BME280;5668;52.012;8.724;2023-02-13T07:56:59;102367.94;;;8.75;100.00
11223;BME280;5668;52.012;8.724;2023-02-13T07:59:26;102367.94;;;8.75;100.00
11223;BME280;5668;52.012;8.724;2023-02-13T08:01:54;102367.94;;;8.75;100.00
11223;BME280;5668;52.012;8.724;2023-02-13T08:04:21;102362.75;;;8.75;100.00
11223;BME280;5668;52.012;8.724;2023-02-13T08:06:49;102367.09;;;8.75;100.00
11223;BME280;5668;52.012;8.724;2023-02-13T08:09:19;102373.13;;;8.75;100.00
11223;BME280;5668;52.012;8.724;2023-02-13T08:12:06;102373.16;;;8.74;100.00
11223;BME280;5668;52.012;8.724;2023-02-13T08:14:34;102366.25;;;8.74;100.00
11223;BME280;5668;52.012;8.724;2023-02-13T08:17:01;102376.53;;;8.77;100.00
11223;BME280;5668;52.012;8.724;2023-02-13T08:19:29;102372.25;;;8.76;100.00
11223;BME280;5668;52.012;8.724;2023-02-13T08:21:57;102370.47;;;8.78;100.00
11223;BME280;5668;52.012;8.724;2023-02-13T08:24:25;102376.53;;;8.77;100.00
11223;BME280;5668;52.012;8.724;2023-02-13T08:26:52;102365.31;;;8.77;100.00
11223;BME280;5668;52.012;8.724;2023-02-13T08:29:19;102369.59;;;8.78;100.00
11223;BME280;5668;52.012;8.724;2023-02-13T08:31:46;102363.53;;;8.79;100.00
11223;BME280;5668;52.012;8.724;2023-02-13T08:34:13;102366.16;;;8.77;100.00
11223;BME280;5668;52.012;8.724;2023-02-13T08:36:40;102366.97;;;8.79;100.00
11223;BME280;5668;52.012;8.724;2023-02-13T08:39:10;102366.91;;;8.81;100.00
11223;BME280;5668;52.012;8.724;2023-02-13T08:41:37;102365.16;;;8.81;100.00
11223;BME280;5668;52.012;8.724;2023-02-13T08:44:04;102371.16;;;8.83;100.00
11223;BME280;5668;52.012;8.724;2023-02-13T08:46:32;102373.75;;;8.83;100.00
11223;BME280;5668;52.012;8.724;2023-02-13T08:48:59;102374.56;;;8.85;100.00
11223;BME280;5668;52.012;8.724;2023-02-13T08:51:26;102364.19;;;8.85;100.00
11223;BME280;5668;52.012;8.724;2023-02-13T08:53:53;102367.69;;;8.84;100.00
11223;BME280;5668;52.012;8.724;2023-02-13T08:56:22;102367.56;;;8.87;100.00
11223;BME280;5668;52.012;8.724;2023-02-13T08:58:49;102366.63;;;8.90;100.00
11223;BME280;5668;52.012;8.724;2023-02-13T09:01:16;102364.91;;;8.90;100.00
11223;BME280;5668;52.012;8.724;2023-02-13T09:03:44;102369.19;;;8.91;100.00
11223;BME280;5668;52.012;8.724;2023-02-13T09:06:11;102370.03;;;8.92;100.00
11223;BME280;5668;52.012;8.724;2023-02-13T09:08:38;102367.44;;;8.92;100.00
11223;BME280;5668;52.012;8.724;2023-02-13T09:11:05;102374.31;;;8.95;100.00
11223;BME280;5668;52.012;8.724;2023-02-13T09:13:34;102368.19;;;8.96;100.00
11223;BME280;5668;52.012;8.724;2023-02-13T09:16:04;102376.81;;;8.96;100.00
11223;BME280;5668;52.012;8.724;2023-02-13T09:18:32;102375.00;;;9.00;100.00
11223;BME280;5668;52.012;8.724;2023-02-13T09:21:02;102375.00;;;9.00;100.00
11223;BME280;5668;52.012;8.724;2023-02-13T09:23:31;102371.59;;;8.98;100.00
11223;BME280;5668;52.012;8.724;2023-02-13T09:25:59;102374.97;;;9.01;100.00
11223;BME280;5668;52.012;8.724;2023-02-13T09:28:27;102374.97;;;9.01;100.00
11223;BME280;5668;52.012;8.724;2023-02-13T09:30:56;102375.75;;;9.03;100.00
11223;BME280;5668;52.012;8.724;2023-02-13T09:33:24;102380.81;;;9.08;100.00
11223;BME280;5668;52.012;8.724;2023-02-13T09:35:52;102386.00;;;9.08;100.00
11223;BME280;5668;52.012;8.724;2023-02-13T09:38:19;102379.84;;;9.10;100.00
11223;BME280;5668;52.012;8.724;2023-02-13T09:40:49;102377.22;;;9.12;100.00
11223;BME280;5668;52.012;8.724;2023-02-13T09:43:21;102376.38;;;9.11;100.00
11223;BME280;5668;52.012;8.724;2023-02-13T09:45:57;102378.91;;;9.13;100.00
11223;BME280;5668;52.012;8.724;2023-02-13T09:48:29;102381.44;;;9.16;100.00
11223;BME280;5668;52.012;8.724;2023-02-13T09:50:57;102392.59;;;9.18;100.00
11223;BME280;5668;52.012;8.724;2023-02-13T09:53:27;102390.81;;;9.20;100.00
11223;BME280;5668;52.012;8.724;2023-02-13T09:56:04;102396.84;;;9.20;100.00
11223;BME280;5668;52.012;8.724;2023-02-13T09:58:41;102387.31;;;9.21;99.84
11223;BME280;5668;52.012;8.724;2023-02-13T10:01:22;102386.38;;;9.23;99.78
11223;BME280;5668;52.012;8.724;2023-02-13T10:04:04;102392.31;;;9.27;99.96
11223;BME280;5668;52.012;8.724;2023-02-13T10:06:38;102388.81;;;9.28;100.00
11223;BME280;5668;52.012;8.724;2023-02-13T10:09:21;102390.53;;;9.29;99.21
11223;BME280;5668;52.012;8.724;2023-02-13T10:12:04;102395.63;;;9.32;99.75
11223;BME280;5668;52.012;8.724;2023-02-13T10:14:41;102388.63;;;9.34;99.63
11223;BME280;5668;52.012;8.724;2023-02-13T10:17:15;102389.53;;;9.33;99.62
11223;BME280;5668;52.012;8.724;2023-02-13T10:19:46;102389.44;;;9.36;99.28
11223;BME280;5668;52.012;8.724;2023-02-13T10:22:18;102397.19;;;9.38;98.90
11223;BME280;5668;52.012;8.724;2023-02-13T10:24:48;102388.44;;;9.40;98.47
11223;BME280;5668;52.012;8.724;2023-02-13T10:27:21;102390.13;;;9.41;98.56
11223;BME280;5668;52.012;8.724;2023-02-13T10:29:53;102380.50;;;9.45;98.45
11223;BME280;5668;52.012;8.724;2023-02-13T10:32:53;102371.84;;;9.46;97.87
11223;BME280;5668;52.012;8.724;2023-02-13T10:35:36;102378.72;;;9.47;97.47
11223;BME280;5668;52.012;8.724;2023-02-13T10:38:13;102374.34;;;9.47;97.35
11223;BME280;5668;52.012;8.724;2023-02-13T10:40:52;102385.53;;;9.49;97.35
11223;BME280;5668;52.012;8.724;2023-02-13T10:43:27;102381.13;;;9.53;97.23
11223;BME280;5668;52.012;8.724;2023-02-13T10:46:02;102386.28;;;9.54;96.41
11223;BME280;5668;52.012;8.724;2023-02-13T10:48:47;102388.75;;;9.57;96.41
11223;BME280;5668;52.012;8.724;2023-02-13T10:51:22;102380.97;;;9.57;96.54
11223;BME280;5668;52.012;8.724;2023-02-13T10:54:05;102387.66;;;9.64;95.69
11223;BME280;5668;52.012;8.724;2023-02-13T10:56:39;102379.81;;;9.66;94.91
11223;BME280;5668;52.012;8.724;2023-02-13T10:59:31;102373.78;;;9.65;95.22
11223;BME280;5668;52.012;8.724;2023-02-13T11:02:02;102372.88;;;9.66;95.09
11223;BME280;5668;52.012;8.724;2023-02-13T11:04:43;102378.03;;;9.68;94.48
11223;BME280;5668;52.012;8.724;2023-02-13T11:07:14;102370.19;;;9.69;94.19
11223;BME280;5668;52.012;8.724;2023-02-13T11:09:47;102376.06;;;9.75;94.21
11223;BME280;5668;52.012;8.724;2023-02-13T11:12:26;102372.53;;;9.77;94.12
11223;BME280;5668;52.012;8.724;2023-02-13T11:14:55;102367.28;;;9.79;94.09
11223;BME280;5668;52.012;8.724;2023-02-13T11:17:24;102369.88;;;9.79;93.94
11223;BME280;5668;52.012;8.724;2023-02-13T11:19:55;102366.31;;;9.81;93.48
11223;BME280;5668;52.012;8.724;2023-02-13T11:22:29;102364.59;;;9.82;93.26
11223;BME280;5668;52.012;8.724;2023-02-13T11:25:00;102368.03;;;9.82;92.98
11223;BME280;5668;52.012;8.724;2023-02-13T11:27:32;102364.59;;;9.82;93.12
11223;BME280;5668;52.012;8.724;2023-02-13T11:30:02;102350.66;;;9.84;93.40
11223;BME280;5668;52.012;8.724;2023-02-13T11:32:31;102363.53;;;9.87;93.43
11223;BME280;5668;52.012;8.724;2023-02-13T11:35:24;102360.03;;;9.88;92.91
11223;BME280;5668;52.012;8.724;2023-02-13T11:38:11;102347.91;;;9.89;92.26
11223;BME280;5668;52.012;8.724;2023-02-13T11:40:41;102360.88;;;9.89;92.41
11223;BME280;5668;52.012;8.724;2023-02-13T11:43:18;102346.88;;;9.93;92.44
11223;BME280;5668;52.012;8.724;2023-02-13T11:45:45;102341.63;;;9.94;92.24
11223;BME280;5668;52.012;8.724;2023-02-13T11:48:20;102345.84;;;9.98;92.55
11223;BME280;5668;52.012;8.724;2023-02-13T11:50:53;102350.06;;;10.01;92.40
11223;BME280;5668;52.012;8.724;2023-02-13T11:53:23;102346.56;;;10.02;92.17
11223;BME280;5668;52.012;8.724;2023-02-13T11:56:06;102344.69;;;10.07;92.33
11223;BME280;5668;52.012;8.724;2023-02-13T11:58:34;102335.09;;;10.07;92.41
11223;BME280;5668;52.012;8.724;2023-02-13T12:01:23;102340.19;;;10.10;91.99
11223;BME280;5668;52.012;8.724;2023-02-13T12:04:06;102340.09;;;10.14;92.38
11223;BME280;5668;52.012;8.724;2023-02-13T12:06:58;102341.72;;;10.18;91.73
11223;BME280;5668;52.012;8.724;2023-02-13T12:09:27;102346.91;;;10.18;91.90
11223;BME280;5668;52.012;8.724;2023-02-13T12:11:56;102338.16;;;10.20;91.54
11223;BME280;5668;52.012;8.724;2023-02-13T12:14:29;102332.94;;;10.22;91.48
11223;BME280;5668;52.012;8.724;2023-02-13T12:17:01;102328.56;;;10.22;91.34
11223;BME280;5668;52.012;8.724;2023-02-13T12:19:34;102321.56;;;10.24;91.37
11223;BME280;5668;52.012;8.724;2023-02-13T12:22:14;102327.56;;;10.26;91.56
11223;BME280;5668;52.012;8.724;2023-02-13T12:24:56;102314.50;;;10.28;91.74
11223;BME280;5668;52.012;8.724;2023-02-13T12:27:32;102311.06;;;10.27;91.95
11223;BME280;5668;52.012;8.724;2023-02-13T12:33:28;102314.56;;;10.26;91.72
11223;BME280;5668;52.012;8.724;2023-02-13T12:36:06;102311.00;;;10.29;92.07
11223;BME280;5668;52.012;8.724;2023-02-13T12:38:58;102311.84;;;10.29;91.54
11223;BME280;5668;52.012;8.724;2023-02-13T12:41:36;102308.47;;;10.27;91.94
11223;BME280;5668;52.012;8.724;2023-02-13T12:44:41;102299.88;;;10.25;91.52
11223;BME280;5668;52.012;8.724;2023-02-13T12:47:16;102306.72;;;10.28;92.15
11223;BME280;5668;52.012;8.724;2023-02-13T12:50:14;102297.16;;;10.28;91.57
11223;BME280;5668;52.012;8.724;2023-02-13T12:52:55;102296.19;;;10.31;91.33
11223;BME280;5668;52.012;8.724;2023-02-13T12:55:41;102285.78;;;10.31;91.14
11223;BME280;5668;52.012;8.724;2023-02-13T12:58:40;102278.94;;;10.30;90.83
11223;BME280;5668;52.012;8.724;2023-02-13T13:01:22;102286.78;;;10.28;90.93
11223;BME280;5668;52.012;8.724;2023-02-13T13:04:03;102282.53;;;10.26;90.42
11223;BME280;5668;52.012;8.724;2023-02-13T13:06:54;102272.09;;;10.27;90.75
11223;BME280;5668;52.012;8.724;2023-02-13T13:09:50;102264.38;;;10.24;90.53
11223;BME280;5668;52.012;8.724;2023-02-13T13:12:37;102262.59;;;10.26;90.47
11223;BME280;5668;52.012;8.724;2023-02-13T13:15:11;102255.59;;;10.28;90.23
11223;BME280;5668;52.012;8.724;2023-02-13T13:17:54;102249.34;;;10.32;90.46
11223;BME280;5668;52.012;8.724;2023-02-13T13:23:24;102256.22;;;10.35;89.86
11223;BME280;5668;52.012;8.724;2023-02-13T13:26:04;102258.63;;;10.39;89.42
11223;BME280;5668;52.012;8.724;2023-02-13T13:28:40;102260.31;;;10.40;90.19
11223;BME280;5668;52.012;8.724;2023-02-13T13:31:09;102254.81;;;10.48;90.53
11223;BME280;5668;52.012;8.724;2023-02-13T13:33:39;102251.09;;;10.55;90.39
11223;BME280;5668;52.012;8.724;2023-02-13T13:36:13;102248.31;;;10.60;90.44
11223;BME280;5668;52.012;8.724;2023-02-13T13:38:49;102242.19;;;10.61;90.50
11223;BME280;5668;52.012;8.724;2023-02-13T13:41:22;102245.72;;;10.60;89.89
11223;BME280;5668;52.012;8.724;2023-02-13T13:44:12;102248.97;;;10.65;89.77
11223;BME280;5668;52.012;8.724;2023-02-13T13:46:50;102240.03;;;10.72;89.99